Time;durP1;ratioP1;P1;durP2;ratioP2;P2;SDS_P1;SDS_P2;PMS_P1;PMS_P2;Temp;Humidity;BMP_temperature;BMP_pressure;BME280_temperature;BME280_humidity;BME280_pressure;Samples;Min_cycle;Max_cycle;Signal;HPM_P1;HPM_P2
2023/07/07 00:01:04;;;;;;;;;14.50;13.50;;;;;-148.88;100.00;62358.56;5098443;28;8814;-78
2023/07/07 00:03:30;;;;;;;;;18.00;16.00;;;;;-148.88;100.00;62358.56;4153139;28;26862680;-78
2023/07/07 00:05:56;;;;;;;;;11.25;10.75;;;;;-148.88;100.00;62358.56;5097350;28;10661;-78
2023/07/07 00:08:21;;;;;;;;;15.50;14.00;;;;;-148.88;100.00;62358.56;5097548;28;8783;-79
2023/07/07 00:10:47;;;;;;;;;14.25;13.00;;;;;-148.88;100.00;62358.56;5097838;28;8811;-78
2023/07/07 00:13:15;;;;;;;;;15.75;14.25;;;;;-148.88;100.00;62358.56;5098867;28;8821;-79
2023/07/07 00:15:44;;;;;;;;;17.50;15.50;;;;;-148.88;100.00;62358.56;5097988;28;8777;-79
2023/07/07 00:18:14;;;;;;;;;18.50;16.25;;;;;-148.88;100.00;62358.56;5097922;28;8798;-79
2023/07/07 00:20:41;;;;;;;;;18.50;17.00;;;;;-148.88;100.00;62358.56;5098950;28;8794;-79
2023/07/07 00:23:07;;;;;;;;;21.50;18.50;;;;;-148.88;100.00;62358.56;5071844;28;8801;-78
2023/07/07 00:25:32;;;;;;;;;19.00;17.75;;;;;-148.88;100.00;62358.56;5097512;28;9554;-78
2023/07/07 00:27:57;;;;;;;;;17.50;15.75;;;;;-148.88;100.00;62358.56;5098510;28;8803;-79
2023/07/07 00:30:23;;;;;;;;;20.00;18.00;;;;;-148.88;100.00;62358.56;5096636;28;9660;-78
2023/07/07 00:32:48;;;;;;;;;17.75;16.25;;;;;-148.88;100.00;62358.56;5097225;28;8964;-78
2023/07/07 00:35:13;;;;;;;;;18.50;17.25;;;;;-148.88;100.00;62358.56;5098254;28;8799;-78
2023/07/07 00:37:39;;;;;;;;;16.25;15.75;;;;;-148.88;100.00;62358.56;5098182;28;8807;-78
2023/07/07 00:40:05;;;;;;;;;19.75;19.50;;;;;-148.88;100.00;62358.56;5084660;28;8871;-78
2023/07/07 00:42:30;;;;;;;;;21.00;17.50;;;;;-148.88;100.00;62358.56;5097663;28;8723;-78
2023/07/07 00:45:05;;;;;;;;;14.50;13.50;;;;;-148.88;100.00;62358.56;5100005;28;9765;-78
2023/07/07 00:47:33;;;;;;;;;21.75;16.50;;;;;-148.88;100.00;62358.56;5097248;28;8783;-78
2023/07/07 00:49:59;;;;;;;;;19.75;17.75;;;;;-148.88;100.00;62358.56;3107316;28;31365431;-78
2023/07/07 00:52:24;;;;;;;;;19.00;17.00;;;;;-148.88;100.00;62358.56;5097806;28;8806;-78
2023/07/07 00:54:50;;;;;;;;;20.50;18.75;;;;;-148.88;100.00;62358.56;5096742;28;8822;-78
2023/07/07 00:57:16;;;;;;;;;15.25;13.50;;;;;-148.88;100.00;62358.56;5090289;28;9566;-77
2023/07/07 00:59:43;;;;;;;;;20.75;19.25;;;;;-148.88;100.00;62358.56;5091020;28;8915;-78
2023/07/07 01:02:14;;;;;;;;;19.50;18.25;;;;;-148.88;100.00;62358.56;5091697;28;8747;-77
2023/07/07 01:04:43;;;;;;;;;13.00;11.75;;;;;-148.88;100.00;62358.56;5097108;28;8803;-78
2023/07/07 01:07:16;;;;;;;;;17.50;16.50;;;;;-148.88;100.00;62358.56;5100764;28;9708;-78
2023/07/07 01:09:41;;;;;;;;;16.50;16.50;;;;;-148.88;100.00;62358.56;5095060;28;8822;-77
2023/07/07 01:12:14;;;;;;;;;18.67;16.00;;;;;-148.88;100.00;62358.56;4363381;28;20861983;-78
2023/07/07 01:14:43;;;;;;;;;17.67;16.33;;;;;-148.88;100.00;62358.56;4889274;28;5858289;-78
2023/07/07 01:17:38;;;;;;;;;15.50;14.25;;;;;-148.88;100.00;62358.56;4310377;28;15010764;-79
2023/07/07 01:20:30;;;;;;;;;17.75;14.75;;;;;-148.88;100.00;62358.56;4156927;28;16361397;-79
2023/07/07 01:23:12;;;;;;;;;16.50;15.25;;;;;-148.88;100.00;62358.56;4732713;28;10359474;-79
2023/07/07 01:25:49;;;;;;;;;14.00;13.50;;;;;-148.88;100.00;62358.56;5096089;28;8818;-79
2023/07/07 01:28:31;;;;;;;;;14.50;13.50;;;;;-148.88;100.00;62358.56;5097369;28;8892;-78
2023/07/07 01:31:19;;;;;;;;;15.50;14.75;;;;;-148.88;100.00;62358.56;5083843;28;8790;-79
2023/07/07 01:33:46;;;;;;;;;13.75;10.25;;;;;-148.88;100.00;62358.56;5095844;28;9820;-79
2023/07/07 01:36:12;;;;;;;;;12.00;12.00;;;;;-148.88;100.00;62358.56;4527921;28;11858813;-79
2023/07/07 01:38:44;;;;;;;;;14.00;13.00;;;;;-148.88;100.00;62358.56;4462333;28;8860260;-78
2023/07/07 01:41:38;;;;;;;;;12.25;10.25;;;;;-148.88;100.00;62358.56;4208546;28;13359339;-79
2023/07/07 01:44:22;;;;;;;;;12.75;11.50;;;;;-148.88;100.00;62358.56;4314355;28;14860484;-79
2023/07/07 01:47:33;;;;;;;;;16.75;14.00;;;;;-148.88;100.00;62358.56;5082890;28;8810;-79
2023/07/07 01:50:20;;;;;;;;;12.25;11.00;;;;;-148.88;100.00;62358.56;4656677;28;10358717;-78
2023/07/07 01:52:48;;;;;;;;;10.00;7.75;;;;;-148.88;100.00;62358.56;5016412;28;8800;-79
2023/07/07 01:55:19;;;;;;;;;12.75;11.50;;;;;-148.88;100.00;62358.56;4069623;28;15310537;-78
2023/07/07 01:57:49;;;;;;;;;13.00;11.67;;;;;-148.88;100.00;62358.56;4885735;28;5857691;-78
2023/07/07 02:00:17;;;;;;;;;13.25;9.75;;;;;-148.88;100.00;62358.56;4942455;28;4357961;-78
2023/07/07 02:02:42;;;;;;;;;10.25;9.00;;;;;-148.88;100.00;62358.56;5093876;28;8822;-79
2023/07/07 02:05:11;;;;;;;;;8.75;8.25;;;;;-148.88;100.00;62358.56;5090909;28;8834;-79
2023/07/07 02:07:37;;;;;;;;;10.25;8.00;;;;;-148.88;100.00;62358.56;5098040;28;8817;-79
2023/07/07 02:10:02;;;;;;;;;9.00;8.50;;;;;-148.88;100.00;62358.56;5096875;28;8809;-79
2023/07/07 02:12:28;;;;;;;;;9.25;8.50;;;;;-148.88;100.00;62358.56;5090842;28;8787;-78
2023/07/07 02:14:53;;;;;;;;;8.50;8.00;;;;;-148.88;100.00;62358.56;5096864;28;12989;-79
2023/07/07 02:17:18;;;;;;;;;8.00;6.50;;;;;-148.88;100.00;62358.56;4007718;28;8858859;-78
2023/07/07 02:19:44;;;;;;;;;10.00;9.25;;;;;-148.88;100.00;62358.56;5108179;28;8783;-79
2023/07/07 02:22:10;;;;;;;;;7.50;7.50;;;;;-148.88;100.00;62358.56;5096167;28;8783;-79
2023/07/07 02:24:35;;;;;;;;;11.00;8.50;;;;;-148.88;100.00;62358.56;5098066;28;8815;-79
2023/07/07 02:27:01;;;;;;;;;11.25;9.50;;;;;-148.88;100.00;62358.56;5108148;28;8816;-79
2023/07/07 02:29:27;;;;;;;;;8.00;7.75;;;;;-148.88;100.00;62358.56;5096691;28;8830;-79
2023/07/07 02:31:52;;;;;;;;;8.25;7.50;;;;;-148.88;100.00;62358.56;4790077;28;4357905;-79
2023/07/07 02:34:18;;;;;;;;;7.00;7.00;;;;;-148.88;100.00;62358.56;5106734;28;8838;-79
2023/07/07 02:36:43;;;;;;;;;8.25;7.25;;;;;-148.88;100.00;62358.56;5105193;28;8803;-78
2023/07/07 02:39:08;;;;;;;;;8.00;8.00;;;;;-148.88;100.00;62358.56;5096635;28;8884;-79
2023/07/07 02:41:34;;;;;;;;;7.50;7.50;;;;;-148.88;100.00;62358.56;5095029;28;8840;-79
2023/07/07 02:43:59;;;;;;;;;6.75;6.00;;;;;-148.88;100.00;62358.56;4941542;28;4359175;-79
2023/07/07 02:46:24;;;;;;;;;8.00;7.00;;;;;-148.88;100.00;62358.56;4888143;28;5858810;-80
2023/07/07 02:48:50;;;;;;;;;8.75;7.25;;;;;-148.88;100.00;62358.56;5107805;28;10864;-79
2023/07/07 02:51:15;;;;;;;;;8.75;7.00;;;;;-148.88;100.00;62358.56;5096627;28;8799;-79
2023/07/07 02:53:41;;;;;;;;;7.00;6.75;;;;;-148.88;100.00;62358.56;5095918;28;8786;-78
2023/07/07 02:56:06;;;;;;;;;6.50;5.25;;;;;-148.88;100.00;62358.56;5096748;28;8825;-79
2023/07/07 02:58:32;;;;;;;;;7.00;7.00;;;;;-148.88;100.00;62358.56;5099505;28;8793;-79
2023/07/07 03:01:13;;;;;;;;;6.25;6.00;;;;;-148.88;100.00;62358.56;5094959;28;8760;-79
2023/07/07 03:03:44;;;;;;;;;9.25;8.50;;;;;-148.88;100.00;62358.56;5102373;28;8890;-79
2023/07/07 03:06:12;;;;;;;;;7.25;6.75;;;;;-148.88;100.00;62358.56;5102319;28;8789;-79
2023/07/07 03:08:38;;;;;;;;;8.50;7.75;;;;;-148.88;100.00;62358.56;5096165;28;8884;-79
2023/07/07 03:11:08;;;;;;;;;4.75;4.50;;;;;-148.88;100.00;62358.56;5096437;28;8811;-79
2023/07/07 03:13:34;;;;;;;;;9.33;8.00;;;;;-148.88;100.00;62358.56;4887619;28;5857789;-79
2023/07/07 03:16:11;;;;;;;;;5.75;4.75;;;;;-148.88;100.00;62358.56;5095884;28;11487;-80
2023/07/07 03:18:38;;;;;;;;;6.50;6.00;;;;;-148.88;100.00;62358.56;5094158;28;8897;-79
2023/07/07 03:21:03;;;;;;;;;9.25;8.00;;;;;-148.88;100.00;62358.56;5094228;28;8775;-79
2023/07/07 03:23:28;;;;;;;;;8.75;6.50;;;;;-148.88;100.00;62358.56;5093480;28;8853;-79
2023/07/07 03:25:54;;;;;;;;;6.75;6.75;;;;;-148.88;100.00;62358.56;5095950;28;8914;-79
2023/07/07 03:28:19;;;;;;;;;7.00;6.50;;;;;-148.88;100.00;62358.56;5097848;28;8803;-79
2023/07/07 03:30:44;;;;;;;;;10.00;8.00;;;;;-148.88;100.00;62358.56;5106664;28;8785;-79
2023/07/07 03:33:12;;;;;;;;;7.00;6.00;;;;;-148.88;100.00;62358.56;5101280;28;8818;-79
2023/07/07 03:35:38;;;;;;;;;8.00;8.00;;;;;-148.88;100.00;62358.56;5111168;28;8802;-79
2023/07/07 03:38:04;;;;;;;;;7.75;7.50;;;;;-148.88;100.00;62358.56;5099316;28;8817;-80
2023/07/07 03:40:29;;;;;;;;;6.50;6.50;;;;;-148.88;100.00;62358.56;5099601;28;8782;-79
2023/07/07 03:42:55;;;;;;;;;7.75;6.00;;;;;-148.88;100.00;62358.56;5107921;27;9202;-79
2023/07/07 03:45:22;;;;;;;;;7.00;7.00;;;;;-148.88;100.00;62358.56;4945980;28;4357285;-79
2023/07/07 03:47:47;;;;;;;;;8.00;6.50;;;;;-148.88;100.00;62358.56;5095376;28;8837;-79
2023/07/07 03:50:18;;;;;;;;;7.00;6.00;;;;;-148.88;100.00;62358.56;5098856;28;8839;-79
2023/07/07 03:52:43;;;;;;;;;7.67;6.67;;;;;-148.88;100.00;62358.56;4633392;28;8859091;-79
2023/07/07 03:55:09;;;;;;;;;7.25;7.00;;;;;-148.88;100.00;62358.56;5096995;28;10065;-79
2023/07/07 03:57:39;;;;;;;;;4.75;4.75;;;;;-148.88;100.00;62358.56;3847461;28;14861676;-79
2023/07/07 04:00:05;;;;;;;;;7.25;7.00;;;;;-148.88;100.00;62358.56;5108306;28;11454;-79
2023/07/07 04:02:30;;;;;;;;;8.00;7.25;;;;;-148.88;100.00;62358.56;5097708;28;8814;-79
2023/07/07 04:04:56;;;;;;;;;11.50;9.00;;;;;-148.88;100.00;62358.56;5104664;28;8866;-79
2023/07/07 04:07:21;;;;;;;;;6.25;5.00;;;;;-148.88;100.00;62358.56;5112052;28;8843;-79
2023/07/07 04:09:46;;;;;;;;;10.00;7.00;;;;;-148.88;100.00;62358.56;5106297;28;8820;-79
2023/07/07 04:12:12;;;;;;;;;8.00;6.50;;;;;-148.88;100.00;62358.56;5103381;28;8831;-79
2023/07/07 04:14:37;;;;;;;;;8.75;8.00;;;;;-148.88;100.00;62358.56;5096730;28;8848;-79
2023/07/07 04:17:03;;;;;;;;;7.50;6.50;;;;;-148.88;100.00;62358.56;4950519;28;4357420;-79
2023/07/07 04:19:29;;;;;;;;;9.50;7.00;;;;;-148.88;100.00;62358.56;5098258;28;10067;-79
2023/07/07 04:21:55;;;;;;;;;9.00;7.00;;;;;-148.88;100.00;62358.56;4940276;28;4358223;-79
2023/07/07 04:24:20;;;;;;;;;9.00;6.00;;;;;-148.88;100.00;62358.56;5098101;28;8896;-79
2023/07/07 04:26:47;;;;;;;;;5.33;4.67;;;;;-148.88;100.00;62358.56;4892635;28;5857963;-78
2023/07/07 04:29:12;;;;;;;;;7.00;7.00;;;;;-148.88;100.00;62358.56;4881171;28;5857620;-79
2023/07/07 04:31:38;;;;;;;;;9.25;6.00;;;;;-148.88;100.00;62358.56;5098448;28;8901;-79
2023/07/07 04:34:03;;;;;;;;;7.25;6.75;;;;;-148.88;100.00;62358.56;5095947;28;8905;-79
2023/07/07 04:36:28;;;;;;;;;7.50;7.00;;;;;-148.88;100.00;62358.56;5098654;28;8842;-79
2023/07/07 04:38:54;;;;;;;;;9.75;9.00;;;;;-148.88;100.00;62358.56;5098309;28;8895;-79
2023/07/07 04:41:22;;;;;;;;;10.50;9.25;;;;;-148.88;100.00;62358.56;4739577;28;5859514;-79
2023/07/07 04:43:53;;;;;;;;;5.75;5.75;;;;;-148.88;100.00;62358.56;4942477;28;4358039;-79
2023/07/07 04:46:34;;;;;;;;;7.75;6.50;;;;;-148.88;100.00;62358.56;4932657;28;4358090;-79
2023/07/07 04:49:06;;;;;;;;;8.00;8.00;;;;;-148.88;100.00;62358.56;5066584;28;8826;-79
2023/07/07 04:51:33;;;;;;;;;8.25;8.00;;;;;-148.88;100.00;62358.56;5095870;28;8763;-79
2023/07/07 04:53:58;;;;;;;;;7.00;6.00;;;;;-148.88;100.00;62358.56;5098237;28;8736;-79
2023/07/07 04:56:24;;;;;;;;;8.00;7.00;;;;;-148.88;100.00;62358.56;5097698;28;8961;-79
2023/07/07 04:58:51;;;;;;;;;7.00;5.00;;;;;-148.88;100.00;62358.56;5094160;28;8935;-79
2023/07/07 05:01:22;;;;;;;;;8.50;7.00;;;;;-148.88;100.00;62358.56;5095969;28;9827;-78
2023/07/07 05:03:53;;;;;;;;;8.00;8.00;;;;;-148.88;100.00;62358.56;4735649;28;5858905;-79
2023/07/07 05:06:19;;;;;;;;;8.00;7.00;;;;;-148.88;100.00;62358.56;5111520;28;8759;-79
2023/07/07 05:08:45;;;;;;;;;7.50;7.00;;;;;-148.88;100.00;62358.56;5097521;28;8787;-78
2023/07/07 05:11:14;;;;;;;;;7.50;6.00;;;;;-148.88;100.00;62358.56;5097517;28;8783;-78
2023/07/07 05:13:39;;;;;;;;;8.50;7.00;;;;;-148.88;100.00;62358.56;5098094;28;8768;-78
2023/07/07 05:16:11;;;;;;;;;9.00;8.25;;;;;-148.88;100.00;62358.56;5095035;28;8830;-78
2023/07/07 05:18:37;;;;;;;;;8.50;7.25;;;;;-148.88;100.00;62358.56;4954097;28;4358027;-78
2023/07/07 05:21:04;;;;;;;;;10.00;8.00;;;;;-148.88;100.00;62358.56;5097736;28;8790;-79
2023/07/07 05:23:29;;;;;;;;;7.75;7.00;;;;;-148.88;100.00;62358.56;4673883;28;12011398;-78
2023/07/07 05:25:54;;;;;;;;;8.50;8.50;;;;;-148.88;100.00;62358.56;5097486;28;8882;-77
2023/07/07 05:28:20;;;;;;;;;7.00;6.25;;;;;-148.88;100.00;62358.56;4842268;28;7358603;-77
2023/07/07 05:30:47;;;;;;;;;7.00;7.00;;;;;-148.88;100.00;62358.56;4956053;28;4357449;-78
2023/07/07 05:33:12;;;;;;;;;9.50;8.50;;;;;-148.88;100.00;62358.56;5107746;28;11525;-76
2023/07/07 05:35:52;;;;;;;;;7.00;5.00;;;;;-148.88;100.00;62358.56;5095775;28;8925;-76
2023/07/07 05:38:18;;;;;;;;;8.00;6.00;;;;;-148.88;100.00;62358.56;5096581;28;8791;-76
2023/07/07 05:40:45;;;;;;;;;7.00;6.00;;;;;-148.88;100.00;62358.56;5096398;28;8787;-75
2023/07/07 05:43:15;;;;;;;;;6.25;5.50;;;;;-148.88;100.00;62358.56;5109826;27;9750;-76
2023/07/07 05:45:41;;;;;;;;;7.50;7.00;;;;;-148.88;100.00;62358.56;5093909;28;8799;-73
2023/07/07 05:48:06;;;;;;;;;7.75;7.25;;;;;-148.88;100.00;62358.56;5096510;28;8783;-73
2023/07/07 05:50:32;;;;;;;;;6.25;6.00;;;;;-148.88;100.00;62358.56;5094986;28;8948;-73
2023/07/07 05:52:58;;;;;;;;;6.00;5.00;;;;;-148.88;100.00;62358.56;5096344;28;8817;-72
2023/07/07 05:55:30;;;;;;;;;6.75;6.75;;;;;-148.88;100.00;62358.56;4688762;28;11559187;-73
2023/07/07 05:57:56;;;;;;;;;8.50;7.50;;;;;-148.88;100.00;62358.56;3846130;28;19212125;-72
2023/07/07 06:00:22;;;;;;;;;7.25;7.25;;;;;-148.88;100.00;62358.56;5095234;28;8806;-73
2023/07/07 06:02:48;;;;;;;;;7.00;6.25;;;;;-148.88;100.00;62358.56;5096955;28;8771;-74
2023/07/07 06:05:14;;;;;;;;;9.75;8.00;;;;;-148.88;100.00;62358.56;5095879;28;8907;-71
2023/07/07 06:07:39;;;;;;;;;11.25;7.25;;;;;-148.88;100.00;62358.56;5095932;28;8803;-72
2023/07/07 06:10:05;;;;;;;;;6.25;6.00;;;;;-148.88;100.00;62358.56;5093235;28;8802;-76
2023/07/07 06:12:32;;;;;;;;;6.00;6.00;;;;;-148.88;100.00;62358.56;5104863;28;8822;-74
2023/07/07 06:14:58;;;;;;;;;6.50;6.00;;;;;-148.88;100.00;62358.56;5094150;28;9736;-71
2023/07/07 06:17:23;;;;;;;;;4.00;4.00;;;;;-148.88;100.00;62358.56;5082033;28;8839;-71
2023/07/07 06:19:48;;;;;;;;;9.25;7.50;;;;;-148.88;100.00;62358.56;5093496;28;9589;-76
2023/07/07 06:22:14;;;;;;;;;8.00;7.75;;;;;-148.88;100.00;62358.56;5092744;28;8969;-71
2023/07/07 06:24:39;;;;;;;;;7.00;6.50;;;;;-148.88;100.00;62358.56;5095153;28;8831;-73
2023/07/07 06:27:05;;;;;;;;;5.75;5.75;;;;;-148.88;100.00;62358.56;5094660;28;8811;-81
2023/07/07 06:29:32;;;;;;;;;10.25;8.75;;;;;-148.88;100.00;62358.56;5094948;28;8789;-75
2023/07/07 06:31:58;;;;;;;;;10.75;8.00;;;;;-148.88;100.00;62358.56;5095501;28;8809;-74
2023/07/07 06:34:23;;;;;;;;;7.75;7.00;;;;;-148.88;100.00;62358.56;5095562;28;8893;-77
2023/07/07 06:36:48;;;;;;;;;8.00;6.50;;;;;-148.88;100.00;62358.56;5094376;28;12850;-83
2023/07/07 06:39:14;;;;;;;;;7.75;7.75;;;;;-148.88;100.00;62358.56;5095044;28;8818;-75
2023/07/07 06:41:39;;;;;;;;;7.25;7.25;;;;;-148.88;100.00;62358.56;5097240;28;9537;-75
2023/07/07 06:44:04;;;;;;;;;8.50;7.75;;;;;-148.88;100.00;62358.56;5094397;28;8803;-75
2023/07/07 06:46:31;;;;;;;;;10.00;8.50;;;;;-148.88;100.00;62358.56;5093142;28;8819;-79
2023/07/07 06:49:01;;;;;;;;;8.25;7.25;;;;;-148.88;100.00;62358.56;5077445;28;8803;-74
2023/07/07 06:51:27;;;;;;;;;8.75;8.00;;;;;-148.88;100.00;62358.56;5096420;28;8798;-77
2023/07/07 06:53:52;;;;;;;;;7.00;6.25;;;;;-148.88;100.00;62358.56;5094289;28;8816;-81
2023/07/07 06:56:18;;;;;;;;;8.00;8.00;;;;;-148.88;100.00;62358.56;4920043;28;5859556;-78
2023/07/07 06:58:43;;;;;;;;;10.25;7.25;;;;;-148.88;100.00;62358.56;3894498;28;20863278;-82
2023/07/07 07:01:11;;;;;;;;;9.00;7.75;;;;;-148.88;100.00;62358.56;3928801;28;13962816;-75
2023/07/07 07:03:37;;;;;;;;;9.75;8.00;;;;;-148.88;100.00;62358.56;3741290;28;22362783;-75
2023/07/07 07:06:03;;;;;;;;;7.00;7.00;;;;;-148.88;100.00;62358.56;4942551;28;4356992;-75
2023/07/07 07:08:28;;;;;;;;;9.25;9.25;;;;;-148.88;100.00;62358.56;5095176;28;11415;-73
